Time;durP1;ratioP1;P1;durP2;ratioP2;P2;SDS_P1;SDS_P2;PMS_P1;PMS_P2;Temp;Humidity;BMP_temperature;BMP_pressure;BME280_temperature;BME280_humidity;BME280_pressure;Samples;Min_cycle;Max_cycle;Signal;HPM_P1;HPM_P2
2021/12/24 00:00:10;;;;;;;13.65;9.55;;;5.30;99.90;;;;;;12538536;28;20552;-39
2021/12/24 00:06:14;;;;;;;12.47;8.70;;;5.40;99.90;;;;;;12538440;28;20076;-40
2021/12/24 00:12:19;;;;;;;11.20;8.15;;;5.50;99.90;;;;;;12538622;28;20048;-39
2021/12/24 00:37:09;;;;;;;10.98;7.30;;;5.50;99.90;;;;;;12536571;28;20052;-38
2021/12/24 00:43:14;;;;;;;10.77;7.63;;;5.60;99.90;;;;;;12546651;28;20044;-38
2021/12/24 00:49:16;;;;;;;;;;;5.60;99.90;;;;;;12498273;28;20049;-40
2021/12/24 00:55:25;;;;;;;10.65;6.97;;;5.60;99.90;;;;;;12492903;28;20040;-39
2021/12/24 01:01:27;;;;;;;12.50;8.00;;;5.60;99.90;;;;;;12499415;28;20065;-40
2021/12/24 01:07:29;;;;;;;11.30;8.10;;;5.70;99.90;;;;;;12546101;28;20048;-38
2021/12/24 01:13:31;;;;;;;11.65;8.00;;;5.80;99.90;;;;;;12541027;28;20102;-39
2021/12/24 01:19:37;;;;;;;11.57;8.30;;;5.70;99.90;;;;;;12548944;28;20064;-41
2021/12/24 01:26:02;;;;;;;14.25;8.45;;;5.90;99.90;;;;;;12543971;28;20076;-40
2021/12/24 01:38:35;;;;;;;11.30;8.18;;;6.00;99.90;;;;;;12547837;28;20045;-38
2021/12/24 01:44:38;;;;;;;11.90;8.65;;;6.10;99.90;;;;;;12539273;28;20082;-39
2021/12/24 01:50:42;;;;;;;14.60;9.05;;;6.00;99.90;;;;;;12545210;28;20048;-38
2021/12/24 01:56:45;;;;;;;14.35;8.65;;;6.10;99.90;;;;;;12542530;28;20049;-39
2021/12/24 02:02:49;;;;;;;14.90;9.50;;;6.10;99.90;;;;;;12540987;28;20405;-38
2021/12/24 02:08:54;;;;;;;18.92;10.95;;;6.20;99.90;;;;;;12542909;28;20079;-40
2021/12/24 02:14:58;;;;;;;18.92;11.18;;;6.20;99.90;;;;;;12524161;28;20060;-37
2021/12/24 02:33:48;;;;;;;17.42;10.75;;;6.30;99.90;;;;;;12543906;28;20051;-39
2021/12/24 02:39:54;;;;;;;15.40;10.63;;;6.30;99.90;;;;;;12540238;28;20053;-38
2021/12/24 02:46:05;;;;;;;;;;;6.30;99.90;;;;;;12539328;28;20057;-37
2021/12/24 02:58:40;;;;;;;19.15;12.32;;;6.50;99.90;;;;;;12537996;28;20049;-38
2021/12/24 03:04:42;;;;;;;20.27;13.27;;;6.40;99.90;;;;;;12530971;28;20045;-38
2021/12/24 03:10:44;;;;;;;20.90;13.63;;;6.50;99.90;;;;;;12538877;28;20041;-39
2021/12/24 03:16:55;;;;;;;21.65;13.60;;;6.50;99.90;;;;;;12535608;28;20052;-40
2021/12/24 03:23:22;;;;;;;20.33;13.48;;;6.60;99.90;;;;;;12536406;28;20405;-39
2021/12/24 03:29:24;;;;;;;18.40;11.98;;;6.70;99.90;;;;;;12539361;28;20041;-38
2021/12/24 03:35:26;;;;;;;17.20;11.38;;;6.70;99.90;;;;;;12533275;28;20080;-40
2021/12/24 03:41:28;;;;;;;19.85;12.75;;;6.70;99.90;;;;;;12532237;28;20135;-38
2021/12/24 03:47:36;;;;;;;18.88;10.82;;;6.80;99.90;;;;;;12534733;28;20049;-39
2021/12/24 04:00:09;;;;;;;20.38;12.38;;;6.90;99.90;;;;;;12536378;28;20413;-37
2021/12/24 04:06:11;;;;;;;22.48;13.98;;;7.00;99.90;;;;;;12541370;28;20527;-39
2021/12/24 04:12:13;;;;;;;24.77;15.63;;;7.10;99.90;;;;;;12535987;28;20095;-37
2021/12/24 04:18:21;;;;;;;27.95;17.52;;;7.20;99.90;;;;;;12535732;28;20105;-40
2021/12/24 04:30:50;;;;;;;33.20;20.48;;;7.30;99.90;;;;;;12535532;28;20044;-38
2021/12/24 04:38:05;;;;;;;34.25;19.48;;;7.30;99.90;;;;;;12537095;28;20052;-39
2021/12/24 05:08:40;;;;;;;18.60;11.52;;;7.60;99.90;;;;;;12541285;28;20500;-38
2021/12/24 05:14:45;;;;;;;18.65;11.60;;;7.60;99.90;;;;;;12536326;28;20048;-39
2021/12/24 05:27:13;;;;;;;16.52;10.45;;;7.70;99.90;;;;;;12547600;28;20059;-38
2021/12/24 05:33:17;;;;;;;15.50;9.48;;;7.70;99.90;;;;;;12531930;28;20076;-40
2021/12/24 05:39:23;;;;;;;15.85;9.35;;;7.80;99.90;;;;;;12548881;28;20493;-39
2021/12/24 05:45:25;;;;;;;12.63;8.35;;;7.90;99.90;;;;;;12534841;28;20151;-38
2021/12/24 05:51:28;;;;;;;14.65;8.00;;;7.90;99.90;;;;;;12544608;28;20066;-38
2021/12/24 05:57:30;;;;;;;13.88;8.90;;;8.00;99.90;;;;;;12543564;28;20127;-37
2021/12/24 06:03:33;;;;;;;15.18;8.80;;;8.00;99.90;;;;;;12542208;28;20063;-39
2021/12/24 06:09:36;;;;;;;15.18;8.73;;;8.00;99.90;;;;;;12540637;28;20045;-39
2021/12/24 06:15:44;;;;;;;15.65;9.05;;;8.00;99.90;;;;;;12537392;28;20080;-37
2021/12/24 06:21:46;;;;;;;18.75;10.88;;;8.10;99.90;;;;;;12539855;28;20076;-39
2021/12/24 06:27:48;;;;;;;17.73;10.77;;;8.20;99.90;;;;;;12541864;28;20053;-38
2021/12/24 06:33:50;;;;;;;18.63;11.60;;;8.20;99.90;;;;;;12538233;28;20048;-38
2021/12/24 06:39:54;;;;;;;19.50;11.35;;;8.20;99.90;;;;;;12539485;28;20143;-38
2021/12/24 06:46:08;;;;;;;19.88;11.85;;;8.20;99.90;;;;;;12537330;28;20555;-38
2021/12/24 06:52:10;;;;;;;17.35;11.38;;;8.20;99.90;;;;;;12538557;28;20119;-38
2021/12/24 06:58:12;;;;;;;17.92;11.38;;;8.10;99.90;;;;;;12536613;28;20497;-38
2021/12/24 07:04:14;;;;;;;21.20;12.85;;;8.10;99.90;;;;;;12538443;28;20084;-39
2021/12/24 07:10:17;;;;;;;21.48;13.50;;;8.20;99.90;;;;;;12530099;28;20065;-39
2021/12/24 07:16:19;;;;;;;21.65;14.60;;;8.20;99.90;;;;;;12537510;28;20136;-39
2021/12/24 07:22:21;;;;;;;25.88;15.43;;;8.30;99.90;;;;;;12536070;28;20048;-38
2021/12/24 07:28:23;;;;;;;28.77;16.48;;;8.30;99.90;;;;;;12530548;28;20049;-38
2021/12/24 07:34:25;;;;;;;28.67;18.08;;;8.40;99.90;;;;;;12528719;28;20136;-39
2021/12/24 07:40:27;;;;;;;32.90;18.10;;;8.30;99.90;;;;;;12528619;28;20148;-39
2021/12/24 07:46:40;;;;;;;34.42;18.92;;;8.30;99.90;;;;;;12530512;28;20059;-40
2021/12/24 07:52:42;;;;;;;35.67;18.98;;;8.30;99.90;;;;;;12534175;28;20324;-38
2021/12/24 07:58:45;;;;;;;32.95;18.85;;;8.40;99.90;;;;;;12529716;28;20140;-39
2021/12/24 08:04:48;;;;;;;37.90;19.30;;;8.40;99.90;;;;;;12509456;28;20088;-39
2021/12/24 08:10:50;;;;;;;35.63;19.45;;;8.40;99.90;;;;;;12527362;28;20141;-39
2021/12/24 08:16:52;;;;;;;29.52;18.20;;;8.40;99.90;;;;;;12530983;28;20048;-39
2021/12/24 08:22:56;;;;;;;29.50;17.55;;;8.30;99.90;;;;;;12532420;28;20048;-39
2021/12/24 08:28:58;;;;;;;27.23;18.63;;;8.40;99.90;;;;;;12534317;28;20503;-39
2021/12/24 08:35:00;;;;;;;28.77;17.30;;;8.40;99.90;;;;;;12532538;28;20226;-37
2021/12/24 08:41:02;;;;;;;26.50;16.83;;;8.40;99.90;;;;;;12535059;28;20148;-38
2021/12/24 08:47:05;;;;;;;40.08;17.63;;;8.40;99.90;;;;;;12531643;28;20044;-39
2021/12/24 08:53:07;;;;;;;24.40;16.00;;;8.40;99.90;;;;;;12532876;28;20055;-38
2021/12/24 08:59:09;;;;;;;29.75;15.77;;;8.40;99.90;;;;;;12533579;28;20044;-38
2021/12/24 09:05:13;;;;;;;26.15;16.23;;;8.50;99.90;;;;;;12545108;28;20136;-38
2021/12/24 09:11:16;;;;;;;27.17;16.63;;;8.50;99.90;;;;;;12543480;28;20493;-39
2021/12/24 09:17:18;;;;;;;26.00;15.82;;;8.40;99.90;;;;;;12542312;28;20314;-39
2021/12/24 09:23:23;;;;;;;26.17;15.07;;;8.40;99.90;;;;;;12539337;28;20091;-38
2021/12/24 09:29:45;;;;;;;23.80;14.53;;;8.40;99.90;;;;;;12543541;28;20456;-39
2021/12/24 09:35:47;;;;;;;26.10;14.63;;;8.40;99.90;;;;;;12542225;28;20053;-38
2021/12/24 09:41:49;;;;;;;24.00;12.63;;;8.40;99.90;;;;;;12541791;28;20753;-39
2021/12/24 09:47:52;;;;;;;18.88;12.30;;;8.40;99.90;;;;;;12541713;28;20148;-40
2021/12/24 09:53:56;;;;;;;23.98;12.38;;;8.50;99.90;;;;;;12539932;28;20730;-38
2021/12/24 09:59:58;;;;;;;20.83;11.40;;;8.40;99.90;;;;;;12541519;28;20080;-40
2021/12/24 10:06:01;;;;;;;20.90;10.90;;;8.50;99.90;;;;;;12529745;28;20156;-39
2021/12/24 10:12:18;;;;;;;21.00;11.30;;;8.50;99.90;;;;;;12538366;28;20072;-38
2021/12/24 10:18:51;;;;;;;24.02;11.50;;;8.50;99.90;;;;;;12543107;28;20406;-39
2021/12/24 10:25:12;;;;;;;19.67;10.70;;;8.40;99.90;;;;;;12541987;28;20537;-39
2021/12/24 10:31:21;;;;;;;20.10;10.90;;;8.50;99.90;;;;;;12539491;28;20103;-41
2021/12/24 10:37:26;;;;;;;17.75;10.48;;;8.50;99.90;;;;;;12542998;28;20052;-39
2021/12/24 10:43:33;;;;;;;22.05;10.52;;;8.40;99.90;;;;;;12541949;28;20053;-39
2021/12/24 10:50:05;;;;;;;18.77;10.00;;;8.40;99.90;;;;;;12531733;28;20084;-39
2021/12/24 10:56:07;;;;;;;21.73;10.73;;;8.30;99.90;;;;;;12532430;28;20143;-39
2021/12/24 11:02:12;;;;;;;20.23;11.10;;;8.30;99.90;;;;;;12534828;28;20591;-39
2021/12/24 11:08:25;;;;;;;15.65;10.40;;;8.30;99.90;;;;;;12535919;28;20757;-38
2021/12/24 11:14:31;;;;;;;23.58;11.80;;;8.30;99.90;;;;;;12537001;28;20049;-38
2021/12/24 11:20:35;;;;;;;24.23;12.43;;;8.20;99.90;;;;;;12535032;28;20595;-40
2021/12/24 11:26:50;;;;;;;21.95;12.75;;;8.20;99.90;;;;;;12538033;28;20496;-39
2021/12/24 11:32:53;;;;;;;22.38;12.15;;;8.10;99.90;;;;;;12528511;28;20117;-39
2021/12/24 11:38:58;;;;;;;21.70;12.52;;;8.10;99.90;;;;;;12534417;28;20110;-39
2021/12/24 11:45:00;;;;;;;26.23;13.00;;;8.00;99.90;;;;;;12535663;28;20063;-38
2021/12/24 11:51:09;;;;;;;21.08;13.18;;;8.00;99.90;;;;;;12534397;28;20045;-40
2021/12/24 11:57:21;;;;;;;22.00;12.35;;;8.00;99.90;;;;;;12486696;28;20060;-38
2021/12/24 12:03:45;;;;;;;24.83;13.13;;;8.00;99.90;;;;;;12485910;28;20076;-38
2021/12/24 12:09:48;;;;;;;20.95;12.73;;;7.90;99.90;;;;;;12492084;28;20049;-40
2021/12/24 12:15:58;;;;;;;22.90;13.10;;;8.00;99.90;;;;;;12491265;28;20057;-40
2021/12/24 12:28:26;;;;;;;20.88;11.18;;;7.90;99.90;;;;;;12487597;28;20493;-39
2021/12/24 12:34:42;;;;;;;17.20;9.30;;;7.90;99.90;;;;;;12585788;28;20428;-39
2021/12/24 12:40:45;;;;;;;14.27;8.90;;;7.90;99.90;;;;;;12584311;28;20127;-39
2021/12/24 12:46:50;;;;;;;17.63;9.45;;;7.90;99.90;;;;;;12583541;28;20076;-39
2021/12/24 12:53:30;;;;;;;15.27;8.60;;;7.90;99.90;;;;;;12585408;28;20548;-39
2021/12/24 12:59:33;;;;;;;16.63;9.20;;;7.80;99.90;;;;;;12581981;28;20048;-40
2021/12/24 13:05:41;;;;;;;16.20;9.40;;;7.80;99.90;;;;;;12584526;28;20044;-40
2021/12/24 13:11:47;;;;;;;18.17;9.43;;;7.80;99.90;;;;;;12586945;28;20454;-40
2021/12/24 13:17:49;;;;;;;16.58;9.60;;;7.80;99.90;;;;;;12583324;28;20071;-39
2021/12/24 13:23:52;;;;;;;8.75;4.65;;;7.80;99.90;;;;;;12584097;28;20060;-38
2021/12/24 13:30:16;;;;;;;1.40;0.40;;;7.50;99.90;;;;;;12586903;28;20420;-38
2021/12/24 13:36:24;;;;;;;1.40;1.00;;;6.30;99.90;;;;;;12584717;28;20052;-40
2021/12/24 13:42:26;;;;;;;3.20;1.45;;;6.10;99.90;;;;;;12585574;28;20052;-37
2021/12/24 13:48:41;;;;;;;2.08;1.05;;;6.00;99.90;;;;;;12590493;28;20287;-39
2021/12/24 13:54:44;;;;;;;3.47;1.23;;;5.60;99.90;;;;;;12597191;28;20063;-39
2021/12/24 14:00:54;;;;;;;3.15;1.75;;;5.60;99.90;;;;;;12598652;28;20052;-38
2021/12/24 14:07:00;;;;;;;2.05;1.20;;;5.40;99.90;;;;;;12596661;28;20315;-39
2021/12/24 14:13:20;;;;;;;2.25;1.00;;;5.20;99.90;;;;;;12552514;28;20047;-41
2021/12/24 14:19:36;;;;;;;3.53;1.17;;;5.00;99.90;;;;;;12590271;28;20067;-39
2021/12/24 14:25:57;;;;;;;1.90;1.13;;;5.00;99.90;;;;;;12590898;28;20044;-39
2021/12/24 14:32:33;;;;;;;1.45;1.00;;;4.80;99.90;;;;;;12598082;28;20046;-38
2021/12/24 14:38:39;;;;;;;2.08;1.40;;;4.70;99.90;;;;;;12587753;28;20075;-38
2021/12/24 14:44:42;;;;;;;2.22;1.45;;;4.60;99.90;;;;;;12588496;28;20592;-37
2021/12/24 14:50:49;;;;;;;6.03;4.50;;;4.50;99.90;;;;;;12590394;28;20596;-39
2021/12/24 14:56:52;;;;;;;3.67;2.30;;;4.60;99.90;;;;;;12587481;28;20044;-42
2021/12/24 15:02:54;;;;;;;4.43;2.15;;;4.60;99.90;;;;;;12587136;28;20131;-41
2021/12/24 15:09:11;;;;;;;3.20;2.08;;;4.60;99.90;;;;;;12585608;28;20067;-39
2021/12/24 15:15:15;;;;;;;3.95;2.80;;;4.50;99.90;;;;;;12587983;28;20086;-38
2021/12/24 15:21:20;;;;;;;4.00;2.15;;;4.50;99.90;;;;;;12587386;28;20044;-39
2021/12/24 15:27:30;;;;;;;3.67;1.88;;;4.20;99.90;;;;;;12587883;28;20089;-39
2021/12/24 15:33:33;;;;;;;2.83;1.80;;;4.10;99.90;;;;;;12587691;28;20080;-37
2021/12/24 15:39:35;;;;;;;3.22;1.98;;;4.10;99.90;;;;;;12590944;28;20052;-39
2021/12/24 15:45:38;;;;;;;3.42;0.80;;;4.20;99.90;;;;;;12588800;28;20111;-39
2021/12/24 15:51:40;;;;;;;1.42;0.90;;;3.90;99.90;;;;;;12587063;28;20103;-37
2021/12/24 15:58:04;;;;;;;1.83;0.70;;;3.60;99.90;;;;;;12588396;28;20072;-38
2021/12/24 16:04:06;;;;;;;1.52;0.90;;;3.70;99.90;;;;;;12589847;28;20492;-40
2021/12/24 16:10:09;;;;;;;1.73;0.80;;;3.80;99.90;;;;;;12586834;28;20047;-38
2021/12/24 16:16:11;;;;;;;2.90;1.05;;;4.00;99.90;;;;;;12585223;28;20568;-37
2021/12/24 16:22:13;;;;;;;3.67;1.73;;;4.00;99.90;;;;;;12589359;28;20052;-38
2021/12/24 16:28:15;;;;;;;2.35;1.40;;;3.80;99.90;;;;;;12588337;28;20556;-38
2021/12/24 16:34:17;;;;;;;2.28;1.23;;;3.70;99.90;;;;;;12582989;28;20094;-37
2021/12/24 16:40:23;;;;;;;4.68;2.20;;;3.50;99.90;;;;;;12569569;28;20492;-40
2021/12/24 16:46:25;;;;;;;3.78;2.35;;;3.60;99.90;;;;;;12587268;28;20507;-38
2021/12/24 16:52:27;;;;;;;4.40;2.85;;;3.60;99.90;;;;;;12566336;28;20480;-39
2021/12/24 16:58:30;;;;;;;8.70;4.20;;;3.70;99.90;;;;;;12582095;28;20060;-37
2021/12/24 17:04:33;;;;;;;5.75;3.75;;;3.70;99.90;;;;;;12582952;28;20060;-40
2021/12/24 17:10:36;;;;;;;8.82;4.07;;;3.70;99.90;;;;;;12586312;28;20098;-40
2021/12/24 17:16:39;;;;;;;7.20;3.95;;;3.60;99.90;;;;;;12583864;28;20148;-41
2021/12/24 17:22:42;;;;;;;4.88;3.42;;;3.60;99.90;;;;;;12589770;28;20078;-39
2021/12/24 17:28:47;;;;;;;5.30;3.55;;;3.70;99.90;;;;;;12572714;28;20052;-38
2021/12/24 17:34:50;;;;;;;4.78;3.03;;;3.70;99.90;;;;;;12593683;28;20051;-39
2021/12/24 17:40:54;;;;;;;4.53;3.10;;;3.50;99.90;;;;;;12568377;28;20097;-37
2021/12/24 17:46:57;;;;;;;3.57;2.43;;;3.40;99.90;;;;;;12592050;28;20047;-39
2021/12/24 17:52:59;;;;;;;4.35;2.70;;;3.30;99.90;;;;;;12589383;28;20131;-37
2021/12/24 17:59:02;;;;;;;5.63;3.40;;;3.30;99.90;;;;;;12589319;28;20044;-41
2021/12/24 18:05:07;;;;;;;4.88;3.50;;;3.30;99.90;;;;;;12586563;28;20048;-37
2021/12/24 18:11:10;;;;;;;6.40;3.72;;;3.20;99.90;;;;;;12592579;28;20080;-39
2021/12/24 18:17:12;;;;;;;6.65;4.28;;;3.10;99.90;;;;;;12591726;28;20055;-39
2021/12/24 18:23:15;;;;;;;6.90;4.22;;;3.00;99.90;;;;;;12569716;28;20048;-41
2021/12/24 18:29:17;;;;;;;8.82;4.75;;;3.10;99.90;;;;;;12587689;28;20068;-40
2021/12/24 18:35:20;;;;;;;6.18;4.60;;;3.10;99.90;;;;;;12589082;28;20167;-39
2021/12/24 18:41:22;;;;;;;7.15;4.55;;;3.10;99.90;;;;;;12588861;28;20052;-39
2021/12/24 18:47:25;;;;;;;8.27;4.40;;;3.00;99.90;;;;;;12587425;28;20044;-37
2021/12/24 18:53:28;;;;;;;9.07;5.97;;;3.00;99.90;;;;;;12585407;28;20045;-37
2021/12/24 18:59:30;;;;;;;10.70;6.60;;;2.80;99.90;;;;;;12587615;28;20084;-37
2021/12/24 19:05:33;;;;;;;9.88;5.80;;;2.80;99.90;;;;;;12585544;28;20055;-39
2021/12/24 19:11:35;;;;;;;6.95;4.60;;;2.80;99.90;;;;;;12589734;28;20040;-39
2021/12/24 19:17:38;;;;;;;7.75;5.60;;;2.60;99.90;;;;;;12589972;28;20143;-38
2021/12/24 19:23:40;;;;;;;9.73;6.80;;;2.40;99.90;;;;;;12586236;28;20048;-38
2021/12/24 19:29:42;;;;;;;10.65;7.15;;;2.30;99.90;;;;;;12583047;28;20052;-40
2021/12/24 19:35:45;;;;;;;11.93;7.88;;;2.30;99.90;;;;;;12581271;28;20504;-37
2021/12/24 19:41:48;;;;;;;11.82;8.20;;;2.30;99.90;;;;;;12581517;28;20118;-38
2021/12/24 19:47:50;;;;;;;13.55;8.38;;;2.30;99.90;;;;;;12586092;28;20131;-37
2021/12/24 19:53:52;;;;;;;12.77;8.00;;;2.20;99.90;;;;;;12582937;28;20048;-39
2021/12/24 19:59:55;;;;;;;11.95;7.68;;;2.10;99.90;;;;;;12584363;28;20052;-37
2021/12/24 20:05:57;;;;;;;13.80;8.73;;;2.00;99.90;;;;;;12583161;28;20461;-37
2021/12/24 20:11:59;;;;;;;13.90;9.32;;;2.10;99.90;;;;;;12580497;28;20139;-39
2021/12/24 20:18:01;;;;;;;14.45;9.20;;;2.00;99.90;;;;;;12572712;28;20087;-39
2021/12/24 20:24:03;;;;;;;16.83;9.38;;;2.00;99.90;;;;;;12577695;28;20036;-39
2021/12/24 20:30:09;;;;;;;18.40;9.60;;;1.90;99.90;;;;;;12562582;28;20098;-39
2021/12/24 20:36:11;;;;;;;14.43;8.98;;;1.90;99.90;;;;;;12563429;28;20062;-39
2021/12/24 20:42:13;;;;;;;14.88;9.63;;;1.80;99.90;;;;;;12565439;28;20056;-40
2021/12/24 20:48:15;;;;;;;18.02;10.75;;;1.90;99.90;;;;;;12563455;28;20044;-38
2021/12/24 20:54:19;;;;;;;20.80;11.60;;;1.90;99.90;;;;;;12553767;28;20131;-39
2021/12/24 21:00:24;;;;;;;17.25;10.88;;;1.80;99.90;;;;;;12573706;28;20044;-39
2021/12/24 21:06:26;;;;;;;;;;;1.70;99.90;;;;;;12574868;28;20036;-39
2021/12/24 21:12:28;;;;;;;21.95;11.43;;;1.70;99.90;;;;;;12589654;28;20022;-37
2021/12/24 21:18:30;;;;;;;19.73;11.68;;;1.60;99.90;;;;;;12593003;28;20560;-37
2021/12/24 21:24:37;;;;;;;23.48;12.70;;;1.60;99.90;;;;;;12587064;28;20131;-37
2021/12/24 21:30:39;;;;;;;23.60;12.70;;;1.60;99.90;;;;;;12577073;28;20049;-40
2021/12/24 21:36:41;;;;;;;26.48;12.88;;;1.50;99.90;;;;;;12586656;28;20473;-39
2021/12/24 21:42:45;;;;;;;25.23;13.23;;;1.60;99.90;;;;;;12589085;28;20507;-39
2021/12/24 21:48:47;;;;;;;21.23;11.77;;;1.50;99.90;;;;;;12591709;28;20120;-37
2021/12/24 21:54:50;;;;;;;17.55;10.25;;;1.40;99.90;;;;;;12586412;28;20159;-38
2021/12/24 22:00:53;;;;;;;13.75;7.70;;;1.30;99.90;;;;;;12588354;28;20131;-37
2021/12/24 22:13:15;;;;;;;8.95;4.03;;;0.90;99.90;;;;;;12587778;28;20138;-38
2021/12/24 22:19:17;;;;;;;7.88;3.30;;;0.80;99.90;;;;;;12590447;28;20055;-38
2021/12/24 22:25:19;;;;;;;8.48;3.80;;;0.70;99.90;;;;;;12585366;28;20483;-36
2021/12/24 22:31:23;;;;;;;6.05;3.03;;;0.70;99.90;;;;;;12585139;28;20095;-37
2021/12/24 22:37:25;;;;;;;5.65;2.92;;;0.80;99.90;;;;;;12587883;28;20428;-38
2021/12/24 22:43:31;;;;;;;3.55;2.25;;;0.70;99.90;;;;;;12587340;28;20568;-37
2021/12/24 22:49:36;;;;;;;8.20;2.70;;;0.60;99.90;;;;;;12585070;28;20166;-39
2021/12/24 22:55:40;;;;;;;6.18;2.60;;;0.50;99.90;;;;;;12586034;28;20541;-38
2021/12/24 23:01:42;;;;;;;5.65;1.92;;;0.40;99.90;;;;;;12581474;28;20413;-36
2021/12/24 23:07:44;;;;;;;7.40;2.55;;;0.30;99.90;;;;;;12583298;28;20041;-37
2021/12/24 23:13:46;;;;;;;5.97;2.97;;;0.50;99.90;;;;;;12584586;28;20079;-37
2021/12/24 23:19:48;;;;;;;5.47;3.45;;;0.40;99.90;;;;;;12585221;28;20099;-38
2021/12/24 23:25:50;;;;;;;8.82;3.17;;;0.30;99.90;;;;;;12582253;28;20142;-38
2021/12/24 23:31:52;;;;;;;7.78;2.97;;;0.40;99.90;;;;;;12584243;28;20060;-36
2021/12/24 23:37:54;;;;;;;7.13;3.88;;;0.40;99.90;;;;;;12585391;28;20051;-39
2021/12/24 23:44:07;;;;;;;11.65;3.70;;;0.30;99.90;;;;;;12585090;28;20386;-38
2021/12/24 23:50:10;;;;;;;7.82;4.53;;;0.30;99.90;;;;;;12581009;28;20045;-38
2021/12/24 23:56:13;;;;;;;8.55;4.22;;;0.30;99.90;;;;;;12582459;28;20054;-37
